sensor_id;sensor_type;location;lat;lon;timestamp;P1;durP1;ratioP1;P2;durP2;ratioP2
16272;SDS011;8244;50.044;9.006;2023-02-26T00:03:57;8.70;;;4.57;;
16272;SDS011;8244;50.044;9.006;2023-02-26T00:09:01;10.93;;;4.87;;
16272;SDS011;8244;50.044;9.006;2023-02-26T00:14:03;11.00;;;4.97;;
16272;SDS011;8244;50.044;9.006;2023-02-26T00:19:11;14.50;;;5.90;;
16272;SDS011;8244;50.044;9.006;2023-02-26T00:24:13;12.70;;;4.70;;
16272;SDS011;8244;50.044;9.006;2023-02-26T00:29:15;11.60;;;5.50;;
16272;SDS011;8244;50.044;9.006;2023-02-26T00:34:18;12.50;;;5.53;;
16272;SDS011;8244;50.044;9.006;2023-02-26T00:39:26;13.37;;;5.40;;
16272;SDS011;8244;50.044;9.006;2023-02-26T00:44:38;12.37;;;5.20;;
16272;SDS011;8244;50.044;9.006;2023-02-26T00:49:46;13.17;;;5.30;;
16272;SDS011;8244;50.044;9.006;2023-02-26T00:54:55;9.80;;;4.80;;
16272;SDS011;8244;50.044;9.006;2023-02-26T00:59:56;14.33;;;5.27;;
16272;SDS011;8244;50.044;9.006;2023-02-26T01:04:59;12.27;;;5.13;;
16272;SDS011;8244;50.044;9.006;2023-02-26T01:10:03;11.97;;;4.90;;
16272;SDS011;8244;50.044;9.006;2023-02-26T01:15:06;11.10;;;4.93;;
16272;SDS011;8244;50.044;9.006;2023-02-26T01:20:12;10.73;;;4.67;;
16272;SDS011;8244;50.044;9.006;2023-02-26T01:25:17;9.83;;;4.17;;
16272;SDS011;8244;50.044;9.006;2023-02-26T01:30:23;10.40;;;3.80;;
16272;SDS011;8244;50.044;9.006;2023-02-26T01:35:30;9.83;;;3.60;;
16272;SDS011;8244;50.044;9.006;2023-02-26T01:46:34;11.10;;;3.20;;
16272;SDS011;8244;50.044;9.006;2023-02-26T01:51:41;7.30;;;3.20;;
16272;SDS011;8244;50.044;9.006;2023-02-26T01:56:46;8.30;;;3.43;;
16272;SDS011;8244;50.044;9.006;2023-02-26T02:01:51;6.00;;;3.20;;
16272;SDS011;8244;50.044;9.006;2023-02-26T02:06:55;7.27;;;3.10;;
16272;SDS011;8244;50.044;9.006;2023-02-26T02:12:01;8.83;;;3.60;;
16272;SDS011;8244;50.044;9.006;2023-02-26T02:17:18;8.30;;;3.67;;
16272;SDS011;8244;50.044;9.006;2023-02-26T02:22:43;9.83;;;3.67;;
16272;SDS011;8244;50.044;9.006;2023-02-26T02:27:54;9.63;;;4.10;;
16272;SDS011;8244;50.044;9.006;2023-02-26T02:33:03;9.80;;;3.83;;
16272;SDS011;8244;50.044;9.006;2023-02-26T02:38:12;9.13;;;3.83;;
16272;SDS011;8244;50.044;9.006;2023-02-26T02:43:19;10.83;;;4.17;;
16272;SDS011;8244;50.044;9.006;2023-02-26T02:48:26;10.27;;;3.33;;
16272;SDS011;8244;50.044;9.006;2023-02-26T02:53:32;8.80;;;3.93;;
16272;SDS011;8244;50.044;9.006;2023-02-26T02:58:38;8.20;;;3.60;;
16272;SDS011;8244;50.044;9.006;2023-02-26T03:03:46;6.97;;;3.20;;
16272;SDS011;8244;50.044;9.006;2023-02-26T03:08:56;9.13;;;3.43;;
16272;SDS011;8244;50.044;9.006;2023-02-26T03:13:59;10.90;;;3.43;;
16272;SDS011;8244;50.044;9.006;2023-02-26T03:19:07;7.60;;;2.80;;
16272;SDS011;8244;50.044;9.006;2023-02-26T03:24:18;7.07;;;2.80;;
16272;SDS011;8244;50.044;9.006;2023-02-26T03:29:32;6.60;;;2.90;;
16272;SDS011;8244;50.044;9.006;2023-02-26T03:34:40;7.50;;;2.97;;
16272;SDS011;8244;50.044;9.006;2023-02-26T03:39:47;11.50;;;3.23;;
16272;SDS011;8244;50.044;9.006;2023-02-26T03:44:52;5.90;;;3.43;;
16272;SDS011;8244;50.044;9.006;2023-02-26T03:50:00;7.47;;;3.17;;
16272;SDS011;8244;50.044;9.006;2023-02-26T03:55:07;7.23;;;3.43;;
16272;SDS011;8244;50.044;9.006;2023-02-26T04:00:12;7.10;;;3.20;;
16272;SDS011;8244;50.044;9.006;2023-02-26T04:05:17;5.33;;;2.70;;
16272;SDS011;8244;50.044;9.006;2023-02-26T04:10:28;6.13;;;2.53;;
16272;SDS011;8244;50.044;9.006;2023-02-26T04:15:34;8.10;;;2.73;;
16272;SDS011;8244;50.044;9.006;2023-02-26T04:20:37;7.60;;;2.73;;
16272;SDS011;8244;50.044;9.006;2023-02-26T04:25:38;4.83;;;2.43;;
16272;SDS011;8244;50.044;9.006;2023-02-26T04:30:40;7.03;;;2.30;;
16272;SDS011;8244;50.044;9.006;2023-02-26T04:35:43;5.13;;;2.37;;
16272;SDS011;8244;50.044;9.006;2023-02-26T04:40:45;8.60;;;3.00;;
16272;SDS011;8244;50.044;9.006;2023-02-26T04:45:47;5.50;;;2.43;;
16272;SDS011;8244;50.044;9.006;2023-02-26T04:50:50;4.47;;;2.50;;
16272;SDS011;8244;50.044;9.006;2023-02-26T04:55:52;5.23;;;2.53;;
16272;SDS011;8244;50.044;9.006;2023-02-26T05:00:53;6.87;;;2.40;;
16272;SDS011;8244;50.044;9.006;2023-02-26T05:05:58;7.40;;;2.50;;
16272;SDS011;8244;50.044;9.006;2023-02-26T05:11:00;9.53;;;2.60;;
16272;SDS011;8244;50.044;9.006;2023-02-26T05:16:01;5.53;;;2.70;;
16272;SDS011;8244;50.044;9.006;2023-02-26T05:21:04;7.80;;;2.63;;
16272;SDS011;8244;50.044;9.006;2023-02-26T05:26:06;8.77;;;2.60;;
16272;SDS011;8244;50.044;9.006;2023-02-26T05:31:08;8.57;;;2.57;;
16272;SDS011;8244;50.044;9.006;2023-02-26T05:36:11;5.57;;;2.70;;
16272;SDS011;8244;50.044;9.006;2023-02-26T05:41:13;6.57;;;2.90;;
16272;SDS011;8244;50.044;9.006;2023-02-26T05:46:15;6.60;;;2.67;;
16272;SDS011;8244;50.044;9.006;2023-02-26T05:51:18;5.57;;;2.60;;
16272;SDS011;8244;50.044;9.006;2023-02-26T05:56:19;6.47;;;2.70;;
16272;SDS011;8244;50.044;9.006;2023-02-26T06:01:21;7.77;;;2.40;;
16272;SDS011;8244;50.044;9.006;2023-02-26T06:06:24;8.83;;;2.90;;
16272;SDS011;8244;50.044;9.006;2023-02-26T06:11:26;6.07;;;2.70;;
16272;SDS011;8244;50.044;9.006;2023-02-26T06:16:27;6.17;;;2.57;;
16272;SDS011;8244;50.044;9.006;2023-02-26T06:21:31;7.83;;;2.80;;
16272;SDS011;8244;50.044;9.006;2023-02-26T06:26:32;5.03;;;2.57;;
16272;SDS011;8244;50.044;9.006;2023-02-26T06:31:34;5.57;;;2.70;;
16272;SDS011;8244;50.044;9.006;2023-02-26T06:36:37;7.13;;;3.57;;
16272;SDS011;8244;50.044;9.006;2023-02-26T06:41:39;8.80;;;3.67;;
16272;SDS011;8244;50.044;9.006;2023-02-26T06:46:40;8.40;;;2.73;;
16272;SDS011;8244;50.044;9.006;2023-02-26T06:51:43;6.37;;;3.00;;
16272;SDS011;8244;50.044;9.006;2023-02-26T06:56:45;5.90;;;3.13;;
16272;SDS011;8244;50.044;9.006;2023-02-26T07:01:46;4.97;;;2.67;;
16272;SDS011;8244;50.044;9.006;2023-02-26T07:06:49;5.73;;;2.90;;
16272;SDS011;8244;50.044;9.006;2023-02-26T07:11:51;8.63;;;3.50;;
16272;SDS011;8244;50.044;9.006;2023-02-26T07:16:52;8.17;;;3.30;;
16272;SDS011;8244;50.044;9.006;2023-02-26T07:21:55;9.30;;;3.70;;
16272;SDS011;8244;50.044;9.006;2023-02-26T07:26:57;6.90;;;3.27;;
16272;SDS011;8244;50.044;9.006;2023-02-26T07:31:59;8.73;;;3.40;;
16272;SDS011;8244;50.044;9.006;2023-02-26T07:37:02;7.33;;;3.10;;
16272;SDS011;8244;50.044;9.006;2023-02-26T07:42:03;6.57;;;2.80;;
16272;SDS011;8244;50.044;9.006;2023-02-26T07:47:05;5.97;;;2.33;;
16272;SDS011;8244;50.044;9.006;2023-02-26T07:52:08;6.50;;;2.73;;
16272;SDS011;8244;50.044;9.006;2023-02-26T07:57:10;7.03;;;2.60;;
16272;SDS011;8244;50.044;9.006;2023-02-26T08:02:11;3.70;;;2.03;;
16272;SDS011;8244;50.044;9.006;2023-02-26T08:07:15;5.30;;;2.13;;
16272;SDS011;8244;50.044;9.006;2023-02-26T08:12:16;6.23;;;1.70;;
16272;SDS011;8244;50.044;9.006;2023-02-26T08:17:18;4.57;;;1.90;;
16272;SDS011;8244;50.044;9.006;2023-02-26T08:22:21;7.13;;;1.90;;
16272;SDS011;8244;50.044;9.006;2023-02-26T08:27:23;3.90;;;1.97;;
16272;SDS011;8244;50.044;9.006;2023-02-26T08:32:24;1.57;;;1.43;;
16272;SDS011;8244;50.044;9.006;2023-02-26T08:37:28;3.83;;;1.52;;
16272;SDS011;8244;50.044;9.006;2023-02-26T08:42:30;4.30;;;1.50;;
16272;SDS011;8244;50.044;9.006;2023-02-26T08:47:31;3.40;;;1.80;;
16272;SDS011;8244;50.044;9.006;2023-02-26T08:52:34;4.55;;;1.77;;
16272;SDS011;8244;50.044;9.006;2023-02-26T08:57:37;3.83;;;1.60;;
16272;SDS011;8244;50.044;9.006;2023-02-26T09:02:39;7.18;;;2.10;;
16272;SDS011;8244;50.044;9.006;2023-02-26T09:07:42;5.25;;;1.90;;
16272;SDS011;8244;50.044;9.006;2023-02-26T09:12:44;4.28;;;1.70;;
16272;SDS011;8244;50.044;9.006;2023-02-26T09:17:46;5.13;;;1.63;;
16272;SDS011;8244;50.044;9.006;2023-02-26T09:22:49;4.80;;;1.90;;
16272;SDS011;8244;50.044;9.006;2023-02-26T09:27:51;4.13;;;1.50;;
16272;SDS011;8244;50.044;9.006;2023-02-26T09:32:53;5.10;;;1.90;;
16272;SDS011;8244;50.044;9.006;2023-02-26T09:37:56;3.17;;;1.70;;
16272;SDS011;8244;50.044;9.006;2023-02-26T09:43:05;5.93;;;1.73;;
16272;SDS011;8244;50.044;9.006;2023-02-26T09:48:18;3.30;;;1.50;;
16272;SDS011;8244;50.044;9.006;2023-02-26T09:53:25;5.93;;;1.67;;
16272;SDS011;8244;50.044;9.006;2023-02-26T09:58:31;6.47;;;1.70;;
16272;SDS011;8244;50.044;9.006;2023-02-26T10:03:36;4.43;;;1.57;;
16272;SDS011;8244;50.044;9.006;2023-02-26T10:08:54;4.20;;;1.47;;
16272;SDS011;8244;50.044;9.006;2023-02-26T10:14:06;4.60;;;1.50;;
16272;SDS011;8244;50.044;9.006;2023-02-26T10:19:13;2.70;;;1.43;;
16272;SDS011;8244;50.044;9.006;2023-02-26T10:24:18;4.80;;;1.40;;
16272;SDS011;8244;50.044;9.006;2023-02-26T10:29:25;2.97;;;1.57;;
16272;SDS011;8244;50.044;9.006;2023-02-26T10:34:34;2.33;;;1.30;;
16272;SDS011;8244;50.044;9.006;2023-02-26T10:39:43;3.03;;;1.60;;
16272;SDS011;8244;50.044;9.006;2023-02-26T10:44:54;3.50;;;1.50;;
16272;SDS011;8244;50.044;9.006;2023-02-26T10:50:03;3.77;;;1.33;;
16272;SDS011;8244;50.044;9.006;2023-02-26T10:55:22;2.93;;;1.40;;
16272;SDS011;8244;50.044;9.006;2023-02-26T11:00:29;5.18;;;1.50;;
16272;SDS011;8244;50.044;9.006;2023-02-26T11:05:31;2.30;;;1.10;;
16272;SDS011;8244;50.044;9.006;2023-02-26T11:10:40;3.15;;;1.30;;
16272;SDS011;8244;50.044;9.006;2023-02-26T11:15:48;1.35;;;1.10;;
16272;SDS011;8244;50.044;9.006;2023-02-26T11:20:52;1.48;;;1.10;;
16272;SDS011;8244;50.044;9.006;2023-02-26T11:25:58;1.50;;;1.20;;
16272;SDS011;8244;50.044;9.006;2023-02-26T11:31:04;2.00;;;1.20;;
16272;SDS011;8244;50.044;9.006;2023-02-26T11:36:10;1.88;;;0.98;;
16272;SDS011;8244;50.044;9.006;2023-02-26T11:41:15;1.80;;;1.10;;
16272;SDS011;8244;50.044;9.006;2023-02-26T11:46:17;1.65;;;1.30;;
16272;SDS011;8244;50.044;9.006;2023-02-26T11:51:24;3.13;;;1.07;;
16272;SDS011;8244;50.044;9.006;2023-02-26T11:56:30;2.40;;;1.13;;
16272;SDS011;8244;50.044;9.006;2023-02-26T12:01:34;5.30;;;1.20;;
16272;SDS011;8244;50.044;9.006;2023-02-26T12:06:36;3.40;;;1.60;;
16272;SDS011;8244;50.044;9.006;2023-02-26T12:11:50;4.57;;;1.90;;
16272;SDS011;8244;50.044;9.006;2023-02-26T12:17:21;3.23;;;1.10;;
16272;SDS011;8244;50.044;9.006;2023-02-26T12:22:36;2.00;;;1.17;;
16272;SDS011;8244;50.044;9.006;2023-02-26T12:28:03;1.87;;;1.00;;
16272;SDS011;8244;50.044;9.006;2023-02-26T12:33:28;2.33;;;1.27;;
16272;SDS011;8244;50.044;9.006;2023-02-26T12:38:40;3.93;;;1.50;;
16272;SDS011;8244;50.044;9.006;2023-02-26T12:43:48;2.97;;;1.20;;
16272;SDS011;8244;50.044;9.006;2023-02-26T12:49:04;2.60;;;1.40;;
16272;SDS011;8244;50.044;9.006;2023-02-26T13:00:02;1.53;;;1.00;;
16272;SDS011;8244;50.044;9.006;2023-02-26T13:05:23;1.67;;;1.07;;
16272;SDS011;8244;50.044;9.006;2023-02-26T13:10:40;2.27;;;1.10;;
16272;SDS011;8244;50.044;9.006;2023-02-26T13:15:55;2.47;;;1.07;;
16272;SDS011;8244;50.044;9.006;2023-02-26T13:21:08;3.10;;;1.30;;
16272;SDS011;8244;50.044;9.006;2023-02-26T13:26:14;4.03;;;1.20;;
16272;SDS011;8244;50.044;9.006;2023-02-26T13:31:20;3.43;;;1.10;;
16272;SDS011;8244;50.044;9.006;2023-02-26T13:36:26;1.90;;;1.20;;
16272;SDS011;8244;50.044;9.006;2023-02-26T13:41:31;1.33;;;1.13;;
16272;SDS011;8244;50.044;9.006;2023-02-26T13:46:45;1.80;;;1.10;;
16272;SDS011;8244;50.044;9.006;2023-02-26T13:51:56;2.40;;;0.80;;
16272;SDS011;8244;50.044;9.006;2023-02-26T13:57:05;1.50;;;0.80;;
16272;SDS011;8244;50.044;9.006;2023-02-26T14:07:51;1.27;;;0.97;;
16272;SDS011;8244;50.044;9.006;2023-02-26T14:13:01;1.57;;;1.00;;
16272;SDS011;8244;50.044;9.006;2023-02-26T14:18:34;4.07;;;0.90;;
16272;SDS011;8244;50.044;9.006;2023-02-26T14:23:36;2.30;;;0.93;;
16272;SDS011;8244;50.044;9.006;2023-02-26T14:28:44;2.50;;;1.10;;
16272;SDS011;8244;50.044;9.006;2023-02-26T14:34:05;2.93;;;1.23;;
16272;SDS011;8244;50.044;9.006;2023-02-26T14:39:16;1.90;;;0.73;;
16272;SDS011;8244;50.044;9.006;2023-02-26T14:44:25;1.80;;;1.10;;
16272;SDS011;8244;50.044;9.006;2023-02-26T14:49:31;1.57;;;1.00;;
16272;SDS011;8244;50.044;9.006;2023-02-26T14:54:43;1.57;;;1.00;;
16272;SDS011;8244;50.044;9.006;2023-02-26T15:00:06;2.60;;;1.10;;
16272;SDS011;8244;50.044;9.006;2023-02-26T15:05:33;1.90;;;1.10;;
16272;SDS011;8244;50.044;9.006;2023-02-26T15:10:50;2.43;;;1.17;;
16272;SDS011;8244;50.044;9.006;2023-02-26T15:16:06;2.10;;;1.10;;
16272;SDS011;8244;50.044;9.006;2023-02-26T15:21:19;1.37;;;1.03;;
16272;SDS011;8244;50.044;9.006;2023-02-26T15:26:26;2.63;;;1.50;;
16272;SDS011;8244;50.044;9.006;2023-02-26T15:31:32;3.80;;;1.00;;
16272;SDS011;8244;50.044;9.006;2023-02-26T15:36:38;2.33;;;1.20;;
16272;SDS011;8244;50.044;9.006;2023-02-26T15:41:43;1.73;;;1.07;;
16272;SDS011;8244;50.044;9.006;2023-02-26T15:46:49;1.90;;;1.07;;
16272;SDS011;8244;50.044;9.006;2023-02-26T15:51:56;4.00;;;1.03;;
16272;SDS011;8244;50.044;9.006;2023-02-26T15:57:00;3.07;;;1.07;;
16272;SDS011;8244;50.044;9.006;2023-02-26T16:02:03;1.30;;;1.20;;
16272;SDS011;8244;50.044;9.006;2023-02-26T16:07:08;4.13;;;1.77;;
16272;SDS011;8244;50.044;9.006;2023-02-26T16:12:11;3.33;;;1.30;;
16272;SDS011;8244;50.044;9.006;2023-02-26T16:17:22;1.37;;;1.00;;
16272;SDS011;8244;50.044;9.006;2023-02-26T16:22:28;2.13;;;1.23;;
16272;SDS011;8244;50.044;9.006;2023-02-26T16:27:33;3.87;;;1.70;;
16272;SDS011;8244;50.044;9.006;2023-02-26T16:32:36;3.07;;;1.30;;
16272;SDS011;8244;50.044;9.006;2023-02-26T16:37:40;3.80;;;1.73;;
16272;SDS011;8244;50.044;9.006;2023-02-26T16:42:51;3.53;;;1.50;;
16272;SDS011;8244;50.044;9.006;2023-02-26T16:47:55;2.40;;;1.30;;
16272;SDS011;8244;50.044;9.006;2023-02-26T16:53:00;1.47;;;1.27;;
16272;SDS011;8244;50.044;9.006;2023-02-26T16:58:10;4.10;;;1.70;;
16272;SDS011;8244;50.044;9.006;2023-02-26T17:03:15;2.00;;;1.40;;
16272;SDS011;8244;50.044;9.006;2023-02-26T17:08:21;3.13;;;1.20;;
16272;SDS011;8244;50.044;9.006;2023-02-26T17:13:27;2.47;;;1.10;;
16272;SDS011;8244;50.044;9.006;2023-02-26T17:18:30;3.13;;;1.23;;
16272;SDS011;8244;50.044;9.006;2023-02-26T17:23:34;2.73;;;1.30;;
16272;SDS011;8244;50.044;9.006;2023-02-26T17:28:39;2.70;;;1.30;;
16272;SDS011;8244;50.044;9.006;2023-02-26T17:33:42;4.47;;;1.53;;
16272;SDS011;8244;50.044;9.006;2023-02-26T17:38:46;3.17;;;1.27;;
16272;SDS011;8244;50.044;9.006;2023-02-26T17:43:49;1.23;;;1.00;;
16272;SDS011;8244;50.044;9.006;2023-02-26T17:48:50;4.53;;;1.63;;
16272;SDS011;8244;50.044;9.006;2023-02-26T17:53:53;1.63;;;1.20;;
16272;SDS011;8244;50.044;9.006;2023-02-26T17:58:55;5.50;;;1.60;;
16272;SDS011;8244;50.044;9.006;2023-02-26T18:03:58;2.97;;;1.47;;
16272;SDS011;8244;50.044;9.006;2023-02-26T18:09:03;5.97;;;1.50;;
16272;SDS011;8244;50.044;9.006;2023-02-26T18:14:06;3.80;;;1.50;;
16272;SDS011;8244;50.044;9.006;2023-02-26T18:19:09;1.97;;;1.20;;
16272;SDS011;8244;50.044;9.006;2023-02-26T18:24:15;3.33;;;1.60;;
16272;SDS011;8244;50.044;9.006;2023-02-26T18:29:16;4.33;;;1.70;;
16272;SDS011;8244;50.044;9.006;2023-02-26T18:34:20;2.97;;;1.70;;
16272;SDS011;8244;50.044;9.006;2023-02-26T18:39:23;5.23;;;2.00;;
16272;SDS011;8244;50.044;9.006;2023-02-26T18:44:28;3.30;;;1.60;;
16272;SDS011;8244;50.044;9.006;2023-02-26T18:49:32;4.33;;;1.60;;
16272;SDS011;8244;50.044;9.006;2023-02-26T18:54:36;3.90;;;1.80;;
16272;SDS011;8244;50.044;9.006;2023-02-26T18:59:38;1.80;;;1.20;;
16272;SDS011;8244;50.044;9.006;2023-02-26T19:04:40;3.80;;;1.60;;
16272;SDS011;8244;50.044;9.006;2023-02-26T19:09:43;5.93;;;1.83;;
16272;SDS011;8244;50.044;9.006;2023-02-26T19:14:45;4.67;;;1.97;;
16272;SDS011;8244;50.044;9.006;2023-02-26T19:19:47;3.30;;;1.50;;
16272;SDS011;8244;50.044;9.006;2023-02-26T19:24:50;5.33;;;2.23;;
16272;SDS011;8244;50.044;9.006;2023-02-26T19:29:52;5.63;;;2.10;;
16272;SDS011;8244;50.044;9.006;2023-02-26T19:34:55;5.77;;;2.23;;
16272;SDS011;8244;50.044;9.006;2023-02-26T19:39:58;6.73;;;2.50;;
16272;SDS011;8244;50.044;9.006;2023-02-26T19:45:00;7.07;;;2.80;;
16272;SDS011;8244;50.044;9.006;2023-02-26T19:50:01;8.33;;;2.63;;
16272;SDS011;8244;50.044;9.006;2023-02-26T19:55:06;5.90;;;2.27;;
16272;SDS011;8244;50.044;9.006;2023-02-26T20:00:10;7.10;;;2.90;;
16272;SDS011;8244;50.044;9.006;2023-02-26T20:05:13;6.27;;;2.50;;
16272;SDS011;8244;50.044;9.006;2023-02-26T20:10:18;6.60;;;2.77;;
16272;SDS011;8244;50.044;9.006;2023-02-26T20:15:22;7.67;;;3.10;;
16272;SDS011;8244;50.044;9.006;2023-02-26T20:20:24;8.87;;;3.13;;
16272;SDS011;8244;50.044;9.006;2023-02-26T20:25:27;9.13;;;3.67;;
16272;SDS011;8244;50.044;9.006;2023-02-26T20:30:30;8.87;;;3.80;;
16272;SDS011;8244;50.044;9.006;2023-02-26T20:35:31;12.90;;;4.50;;
16272;SDS011;8244;50.044;9.006;2023-02-26T20:40:34;12.73;;;4.43;;
16272;SDS011;8244;50.044;9.006;2023-02-26T20:45:36;10.30;;;4.10;;
16272;SDS011;8244;50.044;9.006;2023-02-26T20:50:39;14.43;;;5.30;;
16272;SDS011;8244;50.044;9.006;2023-02-26T20:55:42;13.10;;;5.60;;
16272;SDS011;8244;50.044;9.006;2023-02-26T21:00:44;13.47;;;5.90;;
16272;SDS011;8244;50.044;9.006;2023-02-26T21:05:45;14.97;;;5.70;;
16272;SDS011;8244;50.044;9.006;2023-02-26T21:10:49;14.40;;;5.50;;
16272;SDS011;8244;50.044;9.006;2023-02-26T21:15:51;16.17;;;5.83;;
16272;SDS011;8244;50.044;9.006;2023-02-26T21:20:53;14.13;;;6.03;;
16272;SDS011;8244;50.044;9.006;2023-02-26T21:25:56;15.70;;;6.83;;
16272;SDS011;8244;50.044;9.006;2023-02-26T21:30:57;16.33;;;6.60;;
16272;SDS011;8244;50.044;9.006;2023-02-26T21:35:59;14.97;;;6.60;;
16272;SDS011;8244;50.044;9.006;2023-02-26T21:41:02;16.23;;;7.33;;
16272;SDS011;8244;50.044;9.006;2023-02-26T21:46:04;18.73;;;7.63;;
16272;SDS011;8244;50.044;9.006;2023-02-26T21:51:06;19.03;;;7.60;;
16272;SDS011;8244;50.044;9.006;2023-02-26T21:56:09;18.30;;;7.73;;
16272;SDS011;8244;50.044;9.006;2023-02-26T22:01:10;16.87;;;6.97;;
16272;SDS011;8244;50.044;9.006;2023-02-26T22:06:12;15.73;;;7.70;;
16272;SDS011;8244;50.044;9.006;2023-02-26T22:11:15;19.70;;;8.33;;
16272;SDS011;8244;50.044;9.006;2023-02-26T22:16:17;22.17;;;8.80;;
16272;SDS011;8244;50.044;9.006;2023-02-26T22:21:19;23.40;;;9.30;;
16272;SDS011;8244;50.044;9.006;2023-02-26T22:26:24;20.13;;;7.80;;
16272;SDS011;8244;50.044;9.006;2023-02-26T22:31:25;19.33;;;7.63;;
16272;SDS011;8244;50.044;9.006;2023-02-26T22:36:27;17.07;;;7.83;;
16272;SDS011;8244;50.044;9.006;2023-02-26T22:41:31;16.97;;;7.70;;
16272;SDS011;8244;50.044;9.006;2023-02-26T22:46:33;20.07;;;7.53;;
16272;SDS011;8244;50.044;9.006;2023-02-26T22:51:35;17.73;;;7.63;;
16272;SDS011;8244;50.044;9.006;2023-02-26T22:56:38;18.57;;;8.07;;
16272;SDS011;8244;50.044;9.006;2023-02-26T23:01:39;21.40;;;8.60;;
16272;SDS011;8244;50.044;9.006;2023-02-26T23:06:41;18.63;;;8.23;;
16272;SDS011;8244;50.044;9.006;2023-02-26T23:11:44;21.47;;;8.13;;
16272;SDS011;8244;50.044;9.006;2023-02-26T23:16:45;17.63;;;8.30;;
16272;SDS011;8244;50.044;9.006;2023-02-26T23:21:47;17.27;;;7.90;;
16272;SDS011;8244;50.044;9.006;2023-02-26T23:26:50;18.23;;;7.53;;
16272;SDS011;8244;50.044;9.006;2023-02-26T23:31:52;17.13;;;7.23;;
16272;SDS011;8244;50.044;9.006;2023-02-26T23:36:53;14.80;;;6.70;;
16272;SDS011;8244;50.044;9.006;2023-02-26T23:41:57;18.63;;;7.23;;
16272;SDS011;8244;50.044;9.006;2023-02-26T23:46:59;15.50;;;6.20;;
16272;SDS011;8244;50.044;9.006;2023-02-26T23:52:00;15.20;;;6.30;;
16272;SDS011;8244;50.044;9.006;2023-02-26T23:57:04;12.33;;;5.73;;
